Detall de PIREP

Printer-friendly versionPDF version

[2011/10/08 15:14:00]
Flight IATA:CT1006
Pilot Number:026
Company ICAO:CAT
Aircraft Type:DC85/A
PAX:132
Departing Airport: LEAL
Destination Airport: LICJ
Alternate Airport:LICA
Online: VATSIM
Route:MITOS/N0330F260 UN851 MHN UM603 MORSS/N0330F250 UM603 ARSIK UM731 TEKSA UM732 CAR UM871 KAPIL
Flight Level:F350
No Slew and time accel
No pause
Crash detect
Detect pilot in Cockpit between each 30 and 45 minutes
15:14 Zero fuel Weight: 178514 Lbs, Fuel Weight: 39984 Lbs
15:14 VATSIM:LEAL 081500Z 10012KT 070V140 9999 FEW035 23/14 Q1021 NOSIG
15:14 VATSIM:LICJ 081450Z 31014KT 9999 BKN028 22/12 Q1009
15:15 VOICE CATALONIAN / ALMOGAVERS ROUTE LEG 2
15:26 Parking Brakes off
15:31 Take-off
15:31 Take off Weight: 217334 Lbs
15:31 Wind: 102º @ 012 Knots Heading: 100º
15:31 POS N38º 16´ 52´´ W000º 33´ 06´´
15:31 Gear Up: 183 Knots
15:31 Flaps:2 at 183 Knots
15:32 Flaps:1 at 219 Knots
15:33 Flaps:0 at 238 Knots
15:46 Wind:344º@005 Knots Heading: 070º Ground Speed: 444 Knots Altitude 31853 ft
16:01 Wind:292º@028 Knots Heading: 067º Ground Speed: 522 Knots Altitude 34173 ft
16:08 TOC
16:08 Fuel Weight: 28779 Lb
16:16 Wind:317º@039 Knots Heading: 069º Ground Speed: 504 Knots Altitude 35039 ft
16:31 Wind:310º@031 Knots Heading: 169º Ground Speed: 512 Knots Altitude 34950 ft
16:46 Wind:304º@064 Knots Heading: 106º Ground Speed: 559 Knots Altitude 34924 ft
16:46 TOD
16:46 Fuel Weight: 20218 Lb
17:01 Wind:319º@044 Knots Heading: 099º Ground Speed: 325 Knots Altitude 8986 ft
17:08 Flaps:1 at 210 Knots
17:09 Gear Down: 208 Knots
17:09 Flaps:2 at 198 Knots
17:10 Flaps:3 at 167 Knots
17:11 Flaps:4 at 158 Knots
17:11 Flaps:5 at 151 Knots
17:12 TouchDown:Rate -256 ft/min Speed: 127 Knots
17:12 VATSIM:LICJ 081650Z 32018KT 9999 FEW028 21/09 Q1009
17:12 Land
17:12 Wind:319º@018 Knots
17:12 Heading: 248º
17:12 Flight Duration: 01:41
17:12 Landing Weight: 196019 Lbs
17:12 POS N38º 10´ 51´´ E013º 06´ 22´´
17:17 Parking brakes on
17:17 Block to Block Duration: 01:51
17:17 Final Fuel: 17059 Lbls
17:17 Spent Fuel: 22925 Lbls
17:17 Flight Length: 757 NM
17:17 TOD Land Length: 157 NM

Exportar CSV

Powered by Drupal - Modified by Danger4k